Morganton, NC

12:18 PM EDT on March 26, 2017 (GMT -0400)
Morganton-Lenoir

Weather History for KMRN - March, 2012

Change the Weather History Date:

Monday, March 26, 2012

  Actual Average (KHKY) Record (KHKY)
Temperature  
Mean Temperature 64 °F -  
Max Temperature 75 °F 62 °F 81 °F (1967)
Min Temperature 53 °F 37 °F 19 °F (1955)
Degree Days  
Heating Degree Days 1    
Growing Degree Days 14 (Base 50)    
Moisture  
Dew Point 44 °F    
Average Humidity 50    
Maximum Humidity 94    
Minimum Humidity 25    
Precipitation  
Precipitation 0.01 in - - ()
Wind  
Wind Speed 8 mph (NNW)    
Max Wind Speed 16 mph    
Max Gust Speed 23 mph    
Visibility 10 miles    
Events      
Averages and records for this station are not official NWS values.
T = Trace of Precipitation, MM = Missing Value Source: NWS Daily Summary

Daily Weather History Graph

Daily Weather History Graph

Search for Another Location

Airport or City:

Trip Planner

Search our weather history database for the weather conditions in past years. The results will help you decide how hot, cold, wet, or windy it might be!

Date:

Astronomy

Mar. 26, 2012 Rise Set
Actual Time 7:20 AM EDT 7:43 PM EDT
Civil Twilight 6:55 AM EDT 8:09 PM EDT
Nautical Twilight 6:25 AM EDT 8:39 PM EDT
Astronomical Twilight 5:54 AM EDT 9:09 PM EDT
Moon 9:17 AM EDT 11:43 PM EDT
Length of Visible Light 13h 14m
Length of Day
12h 22m
Waxing Crescent, 14% of the Moon is Illuminated
Mar 26
Waxing Crescent
Mar 30
First Quarter
Apr 6
Full
Apr 13
Last Quarter
Apr 21
New

Hourly Weather History & Observations

Time (EDT) Temp. Dew Point Humidity Pressure Visibility Wind Dir Wind Speed Gust Speed Precip Events Conditions
12:15 AM 59.0 °F 50.0 °F 72% - 10.0 mi Calm Calm - N/A   Clear
12:35 AM 53.6 °F 51.8 °F 94% - 10.0 mi NNW 3.5 mph - N/A   Clear
12:55 AM 55.4 °F 50.0 °F 82% - 10.0 mi NW 5.8 mph - N/A   Clear
1:15 AM 60.8 °F 48.2 °F 63% - 10.0 mi NNW 9.2 mph 17.3 mph 0.01 in   Clear
1:35 AM 60.8 °F 48.2 °F 63% - 10.0 mi NNW 12.7 mph 18.4 mph 0.01 in   Clear
1:55 AM 60.8 °F 48.2 °F 63% - 10.0 mi NNW 11.5 mph 19.6 mph 0.01 in   Clear
2:15 AM 60.8 °F 46.4 °F 59% - 10.0 mi NNW 13.8 mph 19.6 mph N/A   Clear
2:35 AM 60.8 °F 46.4 °F 59% - 10.0 mi NNW 13.8 mph 21.9 mph N/A   Clear
2:55 AM 60.8 °F 46.4 °F 59% - 10.0 mi NNW 11.5 mph 18.4 mph N/A   Clear
3:15 AM 60.8 °F 46.4 °F 59% - 10.0 mi NNW 12.7 mph 20.7 mph N/A   Clear
3:35 AM 60.8 °F 46.4 °F 59% - 10.0 mi NNW 13.8 mph 17.3 mph N/A   Clear
3:55 AM 59.0 °F 46.4 °F 63% - 10.0 mi NNW 13.8 mph 20.7 mph N/A   Clear
4:15 AM 60.8 °F 46.4 °F 59% - 10.0 mi NNW 16.1 mph 23.0 mph N/A   Clear
4:35 AM 60.8 °F 46.4 °F 59% - 10.0 mi NW 11.5 mph - N/A   Clear
4:55 AM 59.0 °F 44.6 °F 59% - 10.0 mi WNW 8.1 mph 17.3 mph N/A   Clear
5:15 AM 59.0 °F 44.6 °F 59% - 10.0 mi NW 9.2 mph 16.1 mph N/A   Clear
5:35 AM 59.0 °F 44.6 °F 59% - 10.0 mi NW 9.2 mph 16.1 mph N/A   Clear
5:55 AM 60.8 °F 44.6 °F 55% - 10.0 mi NW 4.6 mph 16.1 mph N/A   Clear
6:15 AM 59.0 °F 44.6 °F 59% - 10.0 mi NNW 6.9 mph - N/A   Clear
6:35 AM 59.0 °F 44.6 °F 59% - 10.0 mi NNW 10.4 mph - N/A   Clear
6:55 AM 59.0 °F 42.8 °F 55% - 10.0 mi NW 4.6 mph - N/A   Clear
7:15 AM 59.0 °F 42.8 °F 55% - 10.0 mi Calm Calm - N/A   Clear
7:35 AM 55.4 °F 44.6 °F 67% - 10.0 mi NNW 3.5 mph - N/A   Clear
7:55 AM 57.2 °F 44.6 °F 63% - 10.0 mi NW 5.8 mph - N/A   Clear
8:15 AM 55.4 °F 46.4 °F 72% - 10.0 mi NW 4.6 mph - N/A   Clear
8:55 AM 60.8 °F 44.6 °F 55% - 10.0 mi NNW 8.1 mph - N/A   Clear
9:15 AM 62.6 °F 44.6 °F 52% - 10.0 mi NNW 8.1 mph - N/A   Clear
9:35 AM 62.6 °F 46.4 °F 55% - 10.0 mi WNW 4.6 mph - N/A   Clear
9:55 AM 64.4 °F 44.6 °F 49% - 10.0 mi NNW 10.4 mph - N/A   Clear
10:15 AM 64.4 °F 44.6 °F 49% - 10.0 mi NW 9.2 mph - N/A   Clear
10:35 AM 68.0 °F 42.8 °F 40% - 10.0 mi NW 10.4 mph - N/A   Clear
10:55 AM 68.0 °F 44.6 °F 43% - 10.0 mi West 6.9 mph - N/A   Clear
11:15 AM 68.0 °F 44.6 °F 43% - 10.0 mi South 3.5 mph - N/A   Clear
11:35 AM 69.8 °F 42.8 °F 38% - 10.0 mi NW 3.5 mph - N/A   Clear
11:55 AM 69.8 °F 44.6 °F 40% - 10.0 mi North 8.1 mph - N/A   Clear
12:15 PM 71.6 °F 41.0 °F 33% - 10.0 mi North 11.5 mph 16.1 mph N/A   Clear
12:35 PM 71.6 °F 41.0 °F 33% - 10.0 mi North 10.4 mph 17.3 mph N/A   Clear
12:55 PM 71.6 °F 41.0 °F 33% - 10.0 mi North 11.5 mph 16.1 mph N/A   Clear
1:15 PM 73.4 °F 41.0 °F 31% - 10.0 mi North 9.2 mph - N/A   Clear
1:35 PM 73.4 °F 42.8 °F 33% - 10.0 mi NNE 4.6 mph - N/A   Clear
1:55 PM 73.4 °F 41.0 °F 31% - 10.0 mi NNW 9.2 mph - N/A   Clear
2:15 PM 73.4 °F 42.8 °F 33% - 10.0 mi WNW 8.1 mph - N/A   Clear
2:35 PM 73.4 °F 41.0 °F 31% - 10.0 mi North 8.1 mph 17.3 mph N/A   Clear
2:55 PM 75.2 °F 41.0 °F 29% - 10.0 mi NNW 6.9 mph - N/A   Clear
3:15 PM 75.2 °F 41.0 °F 29% - 10.0 mi West 8.1 mph - N/A   Clear
3:35 PM 75.2 °F 41.0 °F 29% - 10.0 mi North 8.1 mph - N/A   Clear
3:55 PM 75.2 °F 41.0 °F 29% - 10.0 mi NNW 8.1 mph - N/A   Clear
4:15 PM 75.2 °F 37.4 °F 25% - 10.0 mi NNW 12.7 mph 19.6 mph N/A   Clear
4:35 PM 73.4 °F 39.2 °F 29% - 10.0 mi NNW 10.4 mph - N/A   Clear
4:55 PM 73.4 °F 41.0 °F 31% - 10.0 mi NW 11.5 mph 17.3 mph N/A   Clear
5:15 PM 73.4 °F 41.0 °F 31% - 10.0 mi WNW 12.7 mph 17.3 mph N/A   Clear
5:35 PM 73.4 °F 41.0 °F 31% - 10.0 mi WNW 9.2 mph 20.7 mph N/A   Clear
5:55 PM 73.4 °F 41.0 °F 31% - 10.0 mi WNW 9.2 mph 18.4 mph N/A   Clear
6:15 PM 71.6 °F 41.0 °F 33% - 10.0 mi WNW 11.5 mph 17.3 mph N/A   Clear
6:35 PM 71.6 °F 41.0 °F 33% - 10.0 mi WNW 9.2 mph - N/A   Clear
6:55 PM 71.6 °F 41.0 °F 33% - 10.0 mi NNW 8.1 mph - N/A   Clear
7:15 PM 69.8 °F 39.2 °F 33% - 10.0 mi NNW 12.7 mph 19.6 mph N/A   Clear
7:35 PM 69.8 °F 41.0 °F 35% - 10.0 mi NW 5.8 mph - N/A   Clear
7:55 PM 68.0 °F 41.0 °F 37% - 10.0 mi NW 8.1 mph - N/A   Clear
8:15 PM 68.0 °F 41.0 °F 37% - 10.0 mi NW 6.9 mph - N/A   Clear
8:35 PM 68.0 °F 41.0 °F 37% - 10.0 mi NW 10.4 mph - N/A   Clear
8:55 PM 64.4 °F 42.8 °F 45% - 10.0 mi NW 4.6 mph - N/A   Clear
9:15 PM 62.6 °F 42.8 °F 48% - 10.0 mi NW 3.5 mph - N/A   Clear
9:35 PM 64.4 °F 42.8 °F 45% - 10.0 mi NW 3.5 mph - N/A   Clear
9:55 PM 57.2 °F 44.6 °F 63% - 10.0 mi Calm Calm - N/A   Clear
10:15 PM 60.8 °F 42.8 °F 52% - 10.0 mi North 5.8 mph - N/A   Clear
10:55 PM 62.6 °F 41.0 °F 45% - 10.0 mi North 4.6 mph - N/A   Clear
11:15 PM 60.8 °F 41.0 °F 48% - 10.0 mi North 6.9 mph - N/A   Clear
11:55 PM 59.0 °F 41.0 °F 51% - 10.0 mi Calm Calm - N/A   Clear